sensor_id;sensor_type;location;lat;lon;timestamp;P1;durP1;ratioP1;P2;durP2;ratioP2
64885;SDS011;51514;52.206;5.114;2024-02-14T00:01:03;21.52;;;16.35;;
64885;SDS011;51514;52.206;5.114;2024-02-14T00:03:29;25.33;;;16.60;;
64885;SDS011;51514;52.206;5.114;2024-02-14T00:05:54;22.58;;;17.05;;
64885;SDS011;51514;52.206;5.114;2024-02-14T00:08:20;21.95;;;15.93;;
64885;SDS011;51514;52.206;5.114;2024-02-14T00:10:46;23.20;;;15.98;;
64885;SDS011;51514;52.206;5.114;2024-02-14T00:13:11;22.40;;;17.85;;
64885;SDS011;51514;52.206;5.114;2024-02-14T00:15:37;24.92;;;17.92;;
64885;SDS011;51514;52.206;5.114;2024-02-14T00:18:03;24.67;;;18.55;;
64885;SDS011;51514;52.206;5.114;2024-02-14T00:20:29;25.63;;;18.60;;
64885;SDS011;51514;52.206;5.114;2024-02-14T00:22:54;30.23;;;20.38;;
64885;SDS011;51514;52.206;5.114;2024-02-14T00:25:20;29.42;;;21.20;;
64885;SDS011;51514;52.206;5.114;2024-02-14T00:27:45;32.97;;;23.48;;
64885;SDS011;51514;52.206;5.114;2024-02-14T00:30:11;27.80;;;21.20;;
64885;SDS011;51514;52.206;5.114;2024-02-14T00:32:36;31.08;;;21.25;;
64885;SDS011;51514;52.206;5.114;2024-02-14T00:35:02;26.00;;;19.90;;
64885;SDS011;51514;52.206;5.114;2024-02-14T00:37:27;29.45;;;20.83;;
64885;SDS011;51514;52.206;5.114;2024-02-14T00:39:53;25.85;;;20.42;;
64885;SDS011;51514;52.206;5.114;2024-02-14T00:42:20;24.75;;;19.17;;
64885;SDS011;51514;52.206;5.114;2024-02-14T00:44:47;29.88;;;21.35;;
64885;SDS011;51514;52.206;5.114;2024-02-14T00:47:12;29.13;;;21.55;;
64885;SDS011;51514;52.206;5.114;2024-02-14T00:49:37;28.05;;;21.67;;
64885;SDS011;51514;52.206;5.114;2024-02-14T00:52:04;30.92;;;21.80;;
64885;SDS011;51514;52.206;5.114;2024-02-14T00:54:29;29.85;;;22.15;;
64885;SDS011;51514;52.206;5.114;2024-02-14T00:56:55;29.27;;;21.77;;
64885;SDS011;51514;52.206;5.114;2024-02-14T00:59:20;31.90;;;22.73;;
64885;SDS011;51514;52.206;5.114;2024-02-14T01:01:45;37.22;;;23.70;;
64885;SDS011;51514;52.206;5.114;2024-02-14T01:04:11;32.20;;;22.48;;
64885;SDS011;51514;52.206;5.114;2024-02-14T01:06:36;35.60;;;24.30;;
64885;SDS011;51514;52.206;5.114;2024-02-14T01:09:02;36.88;;;23.70;;
64885;SDS011;51514;52.206;5.114;2024-02-14T01:11:28;38.42;;;25.95;;
64885;SDS011;51514;52.206;5.114;2024-02-14T01:13:53;40.58;;;25.98;;
64885;SDS011;51514;52.206;5.114;2024-02-14T01:16:19;35.88;;;25.42;;
64885;SDS011;51514;52.206;5.114;2024-02-14T01:18:44;34.95;;;24.58;;
64885;SDS011;51514;52.206;5.114;2024-02-14T01:21:10;34.35;;;24.65;;
64885;SDS011;51514;52.206;5.114;2024-02-14T01:23:35;35.55;;;23.70;;
64885;SDS011;51514;52.206;5.114;2024-02-14T01:26:00;36.50;;;24.17;;
64885;SDS011;51514;52.206;5.114;2024-02-14T01:28:27;37.92;;;24.60;;
64885;SDS011;51514;52.206;5.114;2024-02-14T01:30:52;41.28;;;25.55;;
64885;SDS011;51514;52.206;5.114;2024-02-14T01:33:18;32.60;;;21.95;;
64885;SDS011;51514;52.206;5.114;2024-02-14T01:35:43;36.00;;;23.80;;
64885;SDS011;51514;52.206;5.114;2024-02-14T01:38:09;34.67;;;23.83;;
64885;SDS011;51514;52.206;5.114;2024-02-14T01:40:37;36.88;;;25.73;;
64885;SDS011;51514;52.206;5.114;2024-02-14T01:43:02;38.50;;;24.00;;
64885;SDS011;51514;52.206;5.114;2024-02-14T01:45:28;40.33;;;26.05;;
64885;SDS011;51514;52.206;5.114;2024-02-14T01:47:53;37.40;;;26.25;;
64885;SDS011;51514;52.206;5.114;2024-02-14T01:50:18;40.20;;;25.05;;
64885;SDS011;51514;52.206;5.114;2024-02-14T01:52:50;40.72;;;27.10;;
64885;SDS011;51514;52.206;5.114;2024-02-14T01:55:16;38.75;;;25.50;;
64885;SDS011;51514;52.206;5.114;2024-02-14T01:57:42;41.80;;;25.75;;
64885;SDS011;51514;52.206;5.114;2024-02-14T02:00:07;42.10;;;26.70;;
64885;SDS011;51514;52.206;5.114;2024-02-14T02:02:36;45.83;;;27.90;;
64885;SDS011;51514;52.206;5.114;2024-02-14T02:05:02;37.95;;;24.58;;
64885;SDS011;51514;52.206;5.114;2024-02-14T02:07:28;41.85;;;25.67;;
64885;SDS011;51514;52.206;5.114;2024-02-14T02:09:53;39.13;;;24.85;;
64885;SDS011;51514;52.206;5.114;2024-02-14T02:12:19;39.35;;;25.65;;
64885;SDS011;51514;52.206;5.114;2024-02-14T02:14:44;43.28;;;26.58;;
64885;SDS011;51514;52.206;5.114;2024-02-14T02:17:10;43.90;;;26.70;;
64885;SDS011;51514;52.206;5.114;2024-02-14T02:19:37;36.65;;;24.90;;
64885;SDS011;51514;52.206;5.114;2024-02-14T02:22:03;41.40;;;24.58;;
64885;SDS011;51514;52.206;5.114;2024-02-14T02:24:30;34.88;;;24.63;;
64885;SDS011;51514;52.206;5.114;2024-02-14T02:26:55;33.78;;;23.73;;
64885;SDS011;51514;52.206;5.114;2024-02-14T02:29:21;36.30;;;23.27;;
64885;SDS011;51514;52.206;5.114;2024-02-14T02:31:47;31.95;;;22.67;;
64885;SDS011;51514;52.206;5.114;2024-02-14T02:34:12;34.40;;;22.83;;
64885;SDS011;51514;52.206;5.114;2024-02-14T02:36:38;38.65;;;23.38;;
64885;SDS011;51514;52.206;5.114;2024-02-14T02:39:05;32.55;;;21.55;;
64885;SDS011;51514;52.206;5.114;2024-02-14T02:41:30;32.17;;;21.48;;
64885;SDS011;51514;52.206;5.114;2024-02-14T02:43:59;28.75;;;20.23;;
64885;SDS011;51514;52.206;5.114;2024-02-14T02:46:24;33.28;;;21.27;;
64885;SDS011;51514;52.206;5.114;2024-02-14T02:48:51;28.48;;;19.98;;
64885;SDS011;51514;52.206;5.114;2024-02-14T02:51:17;25.67;;;18.83;;
64885;SDS011;51514;52.206;5.114;2024-02-14T02:53:42;27.42;;;19.35;;
64885;SDS011;51514;52.206;5.114;2024-02-14T02:56:08;28.52;;;19.30;;
64885;SDS011;51514;52.206;5.114;2024-02-14T02:58:33;25.85;;;18.17;;
64885;SDS011;51514;52.206;5.114;2024-02-14T03:00:59;24.58;;;17.73;;
64885;SDS011;51514;52.206;5.114;2024-02-14T03:03:24;23.83;;;17.70;;
64885;SDS011;51514;52.206;5.114;2024-02-14T03:05:52;27.65;;;17.83;;
64885;SDS011;51514;52.206;5.114;2024-02-14T03:08:18;28.15;;;18.27;;
64885;SDS011;51514;52.206;5.114;2024-02-14T03:10:44;28.20;;;18.88;;
64885;SDS011;51514;52.206;5.114;2024-02-14T03:13:10;30.00;;;19.13;;
64885;SDS011;51514;52.206;5.114;2024-02-14T03:15:39;28.58;;;17.73;;
64885;SDS011;51514;52.206;5.114;2024-02-14T03:18:04;28.60;;;17.75;;
64885;SDS011;51514;52.206;5.114;2024-02-14T03:23:00;28.58;;;19.33;;
64885;SDS011;51514;52.206;5.114;2024-02-14T03:25:26;32.40;;;22.67;;
64885;SDS011;51514;52.206;5.114;2024-02-14T03:27:51;41.15;;;22.50;;
64885;SDS011;51514;52.206;5.114;2024-02-14T03:30:18;42.95;;;24.73;;
64885;SDS011;51514;52.206;5.114;2024-02-14T03:32:45;37.00;;;23.55;;
64885;SDS011;51514;52.206;5.114;2024-02-14T03:35:11;44.55;;;26.27;;
64885;SDS011;51514;52.206;5.114;2024-02-14T03:37:38;51.70;;;26.75;;
64885;SDS011;51514;52.206;5.114;2024-02-14T03:40:06;45.35;;;25.60;;
64885;SDS011;51514;52.206;5.114;2024-02-14T03:42:32;38.75;;;25.88;;
64885;SDS011;51514;52.206;5.114;2024-02-14T03:44:59;41.90;;;26.17;;
64885;SDS011;51514;52.206;5.114;2024-02-14T03:47:28;46.90;;;26.50;;
64885;SDS011;51514;52.206;5.114;2024-02-14T03:49:54;49.08;;;27.90;;
64885;SDS011;51514;52.206;5.114;2024-02-14T03:52:20;51.83;;;27.77;;
64885;SDS011;51514;52.206;5.114;2024-02-14T03:54:47;43.63;;;26.27;;
64885;SDS011;51514;52.206;5.114;2024-02-14T03:57:13;52.03;;;27.38;;
64885;SDS011;51514;52.206;5.114;2024-02-14T03:59:38;46.63;;;27.50;;
64885;SDS011;51514;52.206;5.114;2024-02-14T04:02:04;47.90;;;26.55;;
64885;SDS011;51514;52.206;5.114;2024-02-14T04:04:30;51.55;;;28.92;;
64885;SDS011;51514;52.206;5.114;2024-02-14T04:06:56;52.35;;;27.58;;
64885;SDS011;51514;52.206;5.114;2024-02-14T04:09:23;57.50;;;28.92;;
64885;SDS011;51514;52.206;5.114;2024-02-14T04:11:48;52.95;;;28.98;;
64885;SDS011;51514;52.206;5.114;2024-02-14T04:14:15;51.88;;;27.63;;
64885;SDS011;51514;52.206;5.114;2024-02-14T04:16:40;50.38;;;29.45;;
64885;SDS011;51514;52.206;5.114;2024-02-14T04:19:06;59.25;;;28.17;;
64885;SDS011;51514;52.206;5.114;2024-02-14T04:21:32;53.08;;;27.60;;
64885;SDS011;51514;52.206;5.114;2024-02-14T04:23:58;48.42;;;27.08;;
64885;SDS011;51514;52.206;5.114;2024-02-14T04:26:23;61.92;;;29.02;;
64885;SDS011;51514;52.206;5.114;2024-02-14T04:28:49;48.47;;;27.95;;
64885;SDS011;51514;52.206;5.114;2024-02-14T04:31:14;62.15;;;29.42;;
64885;SDS011;51514;52.206;5.114;2024-02-14T04:33:40;61.45;;;30.08;;
64885;SDS011;51514;52.206;5.114;2024-02-14T04:36:06;55.60;;;30.17;;
64885;SDS011;51514;52.206;5.114;2024-02-14T04:38:32;59.80;;;29.58;;
64885;SDS011;51514;52.206;5.114;2024-02-14T04:40:57;56.90;;;29.33;;
64885;SDS011;51514;52.206;5.114;2024-02-14T04:43:23;62.00;;;30.13;;
64885;SDS011;51514;52.206;5.114;2024-02-14T04:45:51;51.80;;;27.98;;
64885;SDS011;51514;52.206;5.114;2024-02-14T04:48:17;57.70;;;28.60;;
64885;SDS011;51514;52.206;5.114;2024-02-14T04:50:42;57.15;;;29.48;;
64885;SDS011;51514;52.206;5.114;2024-02-14T04:53:08;52.25;;;27.45;;
64885;SDS011;51514;52.206;5.114;2024-02-14T04:55:33;59.05;;;28.45;;
64885;SDS011;51514;52.206;5.114;2024-02-14T04:57:59;58.53;;;28.02;;
64885;SDS011;51514;52.206;5.114;2024-02-14T05:00:24;62.40;;;27.45;;
64885;SDS011;51514;52.206;5.114;2024-02-14T05:02:50;59.20;;;28.23;;
64885;SDS011;51514;52.206;5.114;2024-02-14T05:05:16;52.88;;;27.40;;
64885;SDS011;51514;52.206;5.114;2024-02-14T05:07:41;46.30;;;25.90;;
64885;SDS011;51514;52.206;5.114;2024-02-14T05:10:07;50.15;;;26.88;;
64885;SDS011;51514;52.206;5.114;2024-02-14T05:12:32;53.75;;;28.00;;
64885;SDS011;51514;52.206;5.114;2024-02-14T05:14:58;60.00;;;29.00;;
64885;SDS011;51514;52.206;5.114;2024-02-14T05:17:24;58.75;;;29.20;;
64885;SDS011;51514;52.206;5.114;2024-02-14T05:19:49;58.20;;;30.80;;
64885;SDS011;51514;52.206;5.114;2024-02-14T05:22:14;50.95;;;27.88;;
64885;SDS011;51514;52.206;5.114;2024-02-14T05:24:40;51.38;;;26.23;;
64885;SDS011;51514;52.206;5.114;2024-02-14T05:27:05;47.60;;;27.98;;
64885;SDS011;51514;52.206;5.114;2024-02-14T05:29:30;58.92;;;28.60;;
64885;SDS011;51514;52.206;5.114;2024-02-14T05:31:56;56.28;;;29.02;;
64885;SDS011;51514;52.206;5.114;2024-02-14T05:34:22;59.40;;;29.45;;
64885;SDS011;51514;52.206;5.114;2024-02-14T05:36:47;58.03;;;29.95;;
64885;SDS011;51514;52.206;5.114;2024-02-14T05:39:13;58.22;;;29.88;;
64885;SDS011;51514;52.206;5.114;2024-02-14T05:41:39;71.28;;;31.13;;
64885;SDS011;51514;52.206;5.114;2024-02-14T05:44:05;61.92;;;31.13;;
64885;SDS011;51514;52.206;5.114;2024-02-14T05:46:30;60.05;;;29.08;;
64885;SDS011;51514;52.206;5.114;2024-02-14T05:48:55;53.13;;;27.10;;
64885;SDS011;51514;52.206;5.114;2024-02-14T05:51:22;55.92;;;27.98;;
64885;SDS011;51514;52.206;5.114;2024-02-14T05:53:47;51.85;;;26.95;;
64885;SDS011;51514;52.206;5.114;2024-02-14T05:56:13;52.65;;;27.45;;
64885;SDS011;51514;52.206;5.114;2024-02-14T05:58:38;51.38;;;26.50;;
64885;SDS011;51514;52.206;5.114;2024-02-14T06:01:03;49.80;;;26.27;;
64885;SDS011;51514;52.206;5.114;2024-02-14T06:03:29;47.35;;;25.83;;
64885;SDS011;51514;52.206;5.114;2024-02-14T06:05:54;48.75;;;27.45;;
64885;SDS011;51514;52.206;5.114;2024-02-14T06:08:20;52.42;;;27.13;;
64885;SDS011;51514;52.206;5.114;2024-02-14T06:10:45;55.88;;;28.17;;
64885;SDS011;51514;52.206;5.114;2024-02-14T06:13:11;52.92;;;28.40;;
64885;SDS011;51514;52.206;5.114;2024-02-14T06:15:36;56.70;;;28.40;;
64885;SDS011;51514;52.206;5.114;2024-02-14T06:18:02;58.28;;;28.42;;
64885;SDS011;51514;52.206;5.114;2024-02-14T06:20:27;65.40;;;31.00;;
64885;SDS011;51514;52.206;5.114;2024-02-14T06:22:52;57.42;;;30.48;;
64885;SDS011;51514;52.206;5.114;2024-02-14T06:25:19;62.97;;;31.67;;
64885;SDS011;51514;52.206;5.114;2024-02-14T06:27:45;56.75;;;31.13;;
64885;SDS011;51514;52.206;5.114;2024-02-14T06:30:10;60.85;;;29.67;;
64885;SDS011;51514;52.206;5.114;2024-02-14T06:32:36;57.97;;;29.75;;
64885;SDS011;51514;52.206;5.114;2024-02-14T06:35:01;66.22;;;31.15;;
64885;SDS011;51514;52.206;5.114;2024-02-14T06:37:27;50.35;;;28.33;;
64885;SDS011;51514;52.206;5.114;2024-02-14T06:39:52;61.15;;;30.15;;
64885;SDS011;51514;52.206;5.114;2024-02-14T06:42:18;62.97;;;30.52;;
64885;SDS011;51514;52.206;5.114;2024-02-14T06:44:44;64.78;;;29.23;;
64885;SDS011;51514;52.206;5.114;2024-02-14T06:47:10;56.53;;;28.65;;
64885;SDS011;51514;52.206;5.114;2024-02-14T06:49:35;56.67;;;28.90;;
64885;SDS011;51514;52.206;5.114;2024-02-14T06:52:00;65.80;;;30.90;;
64885;SDS011;51514;52.206;5.114;2024-02-14T06:54:26;61.47;;;29.17;;
64885;SDS011;51514;52.206;5.114;2024-02-14T06:56:51;62.08;;;30.15;;
64885;SDS011;51514;52.206;5.114;2024-02-14T06:59:16;73.97;;;32.65;;
64885;SDS011;51514;52.206;5.114;2024-02-14T07:01:42;69.40;;;31.38;;
64885;SDS011;51514;52.206;5.114;2024-02-14T07:04:07;61.50;;;30.80;;
64885;SDS011;51514;52.206;5.114;2024-02-14T07:06:32;70.78;;;32.72;;
64885;SDS011;51514;52.206;5.114;2024-02-14T07:08:58;77.13;;;32.50;;
64885;SDS011;51514;52.206;5.114;2024-02-14T07:11:23;73.13;;;33.90;;
64885;SDS011;51514;52.206;5.114;2024-02-14T07:13:49;81.07;;;35.35;;
64885;SDS011;51514;52.206;5.114;2024-02-14T07:16:14;72.07;;;34.78;;
64885;SDS011;51514;52.206;5.114;2024-02-14T07:18:40;84.47;;;36.00;;
64885;SDS011;51514;52.206;5.114;2024-02-14T07:21:06;82.93;;;37.53;;
64885;SDS011;51514;52.206;5.114;2024-02-14T07:23:31;82.80;;;38.15;;
64885;SDS011;51514;52.206;5.114;2024-02-14T07:25:59;78.15;;;36.40;;
64885;SDS011;51514;52.206;5.114;2024-02-14T07:28:25;90.50;;;37.13;;
64885;SDS011;51514;52.206;5.114;2024-02-14T07:30:51;86.78;;;37.33;;
64885;SDS011;51514;52.206;5.114;2024-02-14T07:33:16;84.38;;;35.90;;
64885;SDS011;51514;52.206;5.114;2024-02-14T07:35:42;79.80;;;35.45;;
64885;SDS011;51514;52.206;5.114;2024-02-14T07:38:08;84.28;;;36.95;;
64885;SDS011;51514;52.206;5.114;2024-02-14T07:40:33;91.60;;;36.83;;
64885;SDS011;51514;52.206;5.114;2024-02-14T07:42:59;78.65;;;35.58;;
64885;SDS011;51514;52.206;5.114;2024-02-14T07:45:25;79.07;;;36.63;;
64885;SDS011;51514;52.206;5.114;2024-02-14T07:47:50;71.07;;;34.15;;
64885;SDS011;51514;52.206;5.114;2024-02-14T07:50:16;81.00;;;37.35;;
64885;SDS011;51514;52.206;5.114;2024-02-14T07:52:42;74.63;;;35.05;;
64885;SDS011;51514;52.206;5.114;2024-02-14T07:55:12;82.30;;;35.17;;
64885;SDS011;51514;52.206;5.114;2024-02-14T07:57:38;68.90;;;32.90;;
64885;SDS011;51514;52.206;5.114;2024-02-14T08:00:07;81.97;;;35.70;;
64885;SDS011;51514;52.206;5.114;2024-02-14T08:02:33;66.22;;;32.08;;
64885;SDS011;51514;52.206;5.114;2024-02-14T08:04:59;53.45;;;29.10;;
64885;SDS011;51514;52.206;5.114;2024-02-14T08:07:25;62.65;;;30.65;;
64885;SDS011;51514;52.206;5.114;2024-02-14T08:09:50;58.92;;;28.95;;
64885;SDS011;51514;52.206;5.114;2024-02-14T08:12:16;51.55;;;26.05;;
64885;SDS011;51514;52.206;5.114;2024-02-14T08:14:41;54.17;;;27.52;;
64885;SDS011;51514;52.206;5.114;2024-02-14T08:17:06;54.53;;;27.95;;
64885;SDS011;51514;52.206;5.114;2024-02-14T08:19:32;51.85;;;25.95;;
64885;SDS011;51514;52.206;5.114;2024-02-14T08:21:57;44.10;;;24.73;;
64885;SDS011;51514;52.206;5.114;2024-02-14T08:24:25;46.80;;;25.38;;
64885;SDS011;51514;52.206;5.114;2024-02-14T08:26:51;55.83;;;27.05;;
64885;SDS011;51514;52.206;5.114;2024-02-14T08:29:16;55.78;;;26.25;;
64885;SDS011;51514;52.206;5.114;2024-02-14T08:31:42;48.35;;;26.20;;
64885;SDS011;51514;52.206;5.114;2024-02-14T08:34:07;49.75;;;26.95;;
64885;SDS011;51514;52.206;5.114;2024-02-14T08:36:34;52.85;;;26.13;;
64885;SDS011;51514;52.206;5.114;2024-02-14T08:39:05;45.70;;;25.95;;
64885;SDS011;51514;52.206;5.114;2024-02-14T08:41:31;46.80;;;25.92;;
64885;SDS011;51514;52.206;5.114;2024-02-14T08:43:57;41.72;;;25.40;;
64885;SDS011;51514;52.206;5.114;2024-02-14T08:46:22;37.47;;;23.08;;
64885;SDS011;51514;52.206;5.114;2024-02-14T08:48:48;34.05;;;21.00;;
64885;SDS011;51514;52.206;5.114;2024-02-14T08:51:14;32.15;;;20.55;;
64885;SDS011;51514;52.206;5.114;2024-02-14T08:53:40;38.97;;;20.85;;
64885;SDS011;51514;52.206;5.114;2024-02-14T08:56:09;36.40;;;19.05;;
64885;SDS011;51514;52.206;5.114;2024-02-14T08:58:35;29.05;;;17.25;;
64885;SDS011;51514;52.206;5.114;2024-02-14T09:01:01;29.30;;;17.40;;
64885;SDS011;51514;52.206;5.114;2024-02-14T09:03:26;24.77;;;15.88;;
64885;SDS011;51514;52.206;5.114;2024-02-14T09:05:51;24.92;;;15.77;;
64885;SDS011;51514;52.206;5.114;2024-02-14T09:08:18;24.13;;;15.07;;
64885;SDS011;51514;52.206;5.114;2024-02-14T09:10:45;21.27;;;13.80;;
64885;SDS011;51514;52.206;5.114;2024-02-14T09:13:11;20.30;;;12.77;;
64885;SDS011;51514;52.206;5.114;2024-02-14T09:15:36;20.60;;;12.85;;
64885;SDS011;51514;52.206;5.114;2024-02-14T09:18:01;19.73;;;13.10;;
64885;SDS011;51514;52.206;5.114;2024-02-14T09:20:28;20.40;;;13.65;;
64885;SDS011;51514;52.206;5.114;2024-02-14T09:22:54;21.67;;;13.23;;
64885;SDS011;51514;52.206;5.114;2024-02-14T09:25:20;20.00;;;13.02;;
64885;SDS011;51514;52.206;5.114;2024-02-14T09:27:48;15.93;;;11.43;;
64885;SDS011;51514;52.206;5.114;2024-02-14T09:30:14;21.98;;;13.60;;
64885;SDS011;51514;52.206;5.114;2024-02-14T09:32:42;19.92;;;12.13;;
64885;SDS011;51514;52.206;5.114;2024-02-14T09:35:07;18.67;;;11.27;;
64885;SDS011;51514;52.206;5.114;2024-02-14T09:37:33;22.80;;;13.13;;
64885;SDS011;51514;52.206;5.114;2024-02-14T09:39:58;17.50;;;12.65;;
64885;SDS011;51514;52.206;5.114;2024-02-14T09:42:38;20.75;;;13.77;;
64885;SDS011;51514;52.206;5.114;2024-02-14T09:45:14;23.92;;;13.82;;
64885;SDS011;51514;52.206;5.114;2024-02-14T09:47:39;25.67;;;16.45;;
64885;SDS011;51514;52.206;5.114;2024-02-14T09:50:06;30.02;;;16.92;;
64885;SDS011;51514;52.206;5.114;2024-02-14T09:52:33;32.17;;;17.95;;
64885;SDS011;51514;52.206;5.114;2024-02-14T09:54:58;27.77;;;17.60;;
64885;SDS011;51514;52.206;5.114;2024-02-14T09:57:24;35.03;;;18.98;;
64885;SDS011;51514;52.206;5.114;2024-02-14T09:59:51;31.25;;;17.27;;
64885;SDS011;51514;52.206;5.114;2024-02-14T10:02:19;31.23;;;19.05;;
64885;SDS011;51514;52.206;5.114;2024-02-14T10:04:45;33.20;;;18.45;;
64885;SDS011;51514;52.206;5.114;2024-02-14T10:07:10;30.80;;;18.80;;
64885;SDS011;51514;52.206;5.114;2024-02-14T10:09:42;33.25;;;17.73;;
64885;SDS011;51514;52.206;5.114;2024-02-14T10:12:08;33.30;;;18.67;;
64885;SDS011;51514;52.206;5.114;2024-02-14T10:14:34;33.97;;;17.40;;
64885;SDS011;51514;52.206;5.114;2024-02-14T10:17:02;28.77;;;17.20;;
64885;SDS011;51514;52.206;5.114;2024-02-14T10:19:28;31.27;;;16.17;;
64885;SDS011;51514;52.206;5.114;2024-02-14T10:22:00;26.60;;;14.75;;
64885;SDS011;51514;52.206;5.114;2024-02-14T10:24:29;26.17;;;13.93;;
64885;SDS011;51514;52.206;5.114;2024-02-14T10:26:55;21.48;;;13.90;;
64885;SDS011;51514;52.206;5.114;2024-02-14T10:29:22;22.20;;;13.43;;
64885;SDS011;51514;52.206;5.114;2024-02-14T10:31:48;24.95;;;13.40;;
64885;SDS011;51514;52.206;5.114;2024-02-14T10:34:14;27.33;;;11.77;;
64885;SDS011;51514;52.206;5.114;2024-02-14T10:36:39;26.23;;;12.55;;
64885;SDS011;51514;52.206;5.114;2024-02-14T10:39:09;19.13;;;11.80;;
64885;SDS011;51514;52.206;5.114;2024-02-14T10:41:36;21.92;;;12.13;;
64885;SDS011;51514;52.206;5.114;2024-02-14T10:44:02;18.73;;;11.20;;
64885;SDS011;51514;52.206;5.114;2024-02-14T10:46:28;18.60;;;11.98;;
64885;SDS011;51514;52.206;5.114;2024-02-14T10:51:28;15.52;;;10.45;;
64885;SDS011;51514;52.206;5.114;2024-02-14T10:53:56;16.42;;;10.70;;
64885;SDS011;51514;52.206;5.114;2024-02-14T10:56:24;14.63;;;10.30;;
64885;SDS011;51514;52.206;5.114;2024-02-14T10:58:54;20.50;;;10.73;;
64885;SDS011;51514;52.206;5.114;2024-02-14T11:01:25;13.07;;;10.48;;
64885;SDS011;51514;52.206;5.114;2024-02-14T11:03:53;18.95;;;11.00;;
64885;SDS011;51514;52.206;5.114;2024-02-14T11:06:20;15.63;;;11.45;;
64885;SDS011;51514;52.206;5.114;2024-02-14T11:08:59;16.83;;;11.15;;
64885;SDS011;51514;52.206;5.114;2024-02-14T11:11:29;15.98;;;10.90;;
64885;SDS011;51514;52.206;5.114;2024-02-14T11:13:55;14.80;;;10.57;;
64885;SDS011;51514;52.206;5.114;2024-02-14T11:16:25;17.05;;;11.38;;
64885;SDS011;51514;52.206;5.114;2024-02-14T11:18:53;15.35;;;11.07;;
64885;SDS011;51514;52.206;5.114;2024-02-14T11:21:50;14.35;;;10.75;;
64885;SDS011;51514;52.206;5.114;2024-02-14T11:24:16;17.95;;;11.82;;
64885;SDS011;51514;52.206;5.114;2024-02-14T11:26:45;18.67;;;11.98;;
64885;SDS011;51514;52.206;5.114;2024-02-14T11:29:16;18.38;;;12.68;;
64885;SDS011;51514;52.206;5.114;2024-02-14T11:31:42;17.00;;;12.50;;
64885;SDS011;51514;52.206;5.114;2024-02-14T11:34:08;15.20;;;12.82;;
64885;SDS011;51514;52.206;5.114;2024-02-14T11:36:36;17.65;;;12.82;;
64885;SDS011;51514;52.206;5.114;2024-02-14T11:39:02;18.52;;;13.32;;
64885;SDS011;51514;52.206;5.114;2024-02-14T11:41:29;21.20;;;14.10;;
64885;SDS011;51514;52.206;5.114;2024-02-14T11:43:54;21.23;;;14.73;;
64885;SDS011;51514;52.206;5.114;2024-02-14T11:46:20;16.75;;;12.85;;
64885;SDS011;51514;52.206;5.114;2024-02-14T11:48:45;19.33;;;13.38;;
64885;SDS011;51514;52.206;5.114;2024-02-14T11:51:11;22.95;;;14.60;;
64885;SDS011;51514;52.206;5.114;2024-02-14T11:53:36;19.73;;;13.63;;
64885;SDS011;51514;52.206;5.114;2024-02-14T11:56:02;18.13;;;14.27;;
64885;SDS011;51514;52.206;5.114;2024-02-14T11:58:27;21.17;;;14.10;;
64885;SDS011;51514;52.206;5.114;2024-02-14T12:00:53;21.83;;;14.00;;
64885;SDS011;51514;52.206;5.114;2024-02-14T12:03:19;23.73;;;15.27;;
64885;SDS011;51514;52.206;5.114;2024-02-14T12:05:47;18.00;;;13.40;;
64885;SDS011;51514;52.206;5.114;2024-02-14T12:08:15;23.70;;;14.55;;
64885;SDS011;51514;52.206;5.114;2024-02-14T12:10:44;21.90;;;15.60;;
64885;SDS011;51514;52.206;5.114;2024-02-14T12:13:15;22.23;;;14.95;;
64885;SDS011;51514;52.206;5.114;2024-02-14T12:15:46;21.58;;;15.45;;
64885;SDS011;51514;52.206;5.114;2024-02-14T12:18:13;20.80;;;13.98;;
64885;SDS011;51514;52.206;5.114;2024-02-14T12:20:39;22.40;;;14.10;;
64885;SDS011;51514;52.206;5.114;2024-02-14T12:23:06;21.95;;;14.23;;
64885;SDS011;51514;52.206;5.114;2024-02-14T12:25:32;18.05;;;13.48;;
64885;SDS011;51514;52.206;5.114;2024-02-14T12:27:59;20.52;;;13.85;;
64885;SDS011;51514;52.206;5.114;2024-02-14T12:31:08;21.05;;;13.73;;
64885;SDS011;51514;52.206;5.114;2024-02-14T12:33:21;19.90;;;12.95;;
64885;SDS011;51514;52.206;5.114;2024-02-14T12:35:47;16.10;;;12.07;;
64885;SDS011;51514;52.206;5.114;2024-02-14T12:38:13;17.38;;;12.95;;
64885;SDS011;51514;52.206;5.114;2024-02-14T12:40:41;16.85;;;11.85;;
64885;SDS011;51514;52.206;5.114;2024-02-14T12:43:07;16.30;;;10.25;;
64885;SDS011;51514;52.206;5.114;2024-02-14T12:45:33;16.60;;;11.50;;
64885;SDS011;51514;52.206;5.114;2024-02-14T12:47:58;14.23;;;10.60;;
64885;SDS011;51514;52.206;5.114;2024-02-14T12:50:24;12.80;;;10.70;;
64885;SDS011;51514;52.206;5.114;2024-02-14T12:52:50;15.10;;;10.73;;
64885;SDS011;51514;52.206;5.114;2024-02-14T12:55:16;12.75;;;9.95;;
64885;SDS011;51514;52.206;5.114;2024-02-14T12:57:41;15.48;;;10.00;;
64885;SDS011;51514;52.206;5.114;2024-02-14T13:00:07;12.68;;;9.85;;
64885;SDS011;51514;52.206;5.114;2024-02-14T13:02:37;15.40;;;10.48;;
64885;SDS011;51514;52.206;5.114;2024-02-14T13:05:05;15.68;;;9.90;;
64885;SDS011;51514;52.206;5.114;2024-02-14T13:07:32;13.40;;;9.95;;
64885;SDS011;51514;52.206;5.114;2024-02-14T13:09:58;16.83;;;10.93;;
64885;SDS011;51514;52.206;5.114;2024-02-14T13:12:23;17.65;;;11.85;;
64885;SDS011;51514;52.206;5.114;2024-02-14T13:14:48;15.23;;;10.82;;
64885;SDS011;51514;52.206;5.114;2024-02-14T13:17:14;18.17;;;11.35;;
64885;SDS011;51514;52.206;5.114;2024-02-14T13:19:39;18.02;;;11.50;;
64885;SDS011;51514;52.206;5.114;2024-02-14T13:22:05;15.18;;;11.10;;
64885;SDS011;51514;52.206;5.114;2024-02-14T13:24:31;14.50;;;10.85;;
64885;SDS011;51514;52.206;5.114;2024-02-14T13:26:56;15.25;;;10.73;;
64885;SDS011;51514;52.206;5.114;2024-02-14T13:29:23;18.33;;;12.32;;
64885;SDS011;51514;52.206;5.114;2024-02-14T13:31:49;16.30;;;10.60;;
64885;SDS011;51514;52.206;5.114;2024-02-14T13:34:15;16.73;;;11.18;;
64885;SDS011;51514;52.206;5.114;2024-02-14T13:36:40;15.35;;;10.52;;
64885;SDS011;51514;52.206;5.114;2024-02-14T13:39:06;15.18;;;10.93;;
64885;SDS011;51514;52.206;5.114;2024-02-14T13:41:32;16.33;;;10.93;;
64885;SDS011;51514;52.206;5.114;2024-02-14T13:44:01;15.00;;;9.82;;
64885;SDS011;51514;52.206;5.114;2024-02-14T13:46:26;12.40;;;9.35;;
64885;SDS011;51514;52.206;5.114;2024-02-14T13:48:52;15.88;;;10.05;;
64885;SDS011;51514;52.206;5.114;2024-02-14T13:51:17;14.05;;;10.57;;
64885;SDS011;51514;52.206;5.114;2024-02-14T13:53:43;14.23;;;9.98;;
64885;SDS011;51514;52.206;5.114;2024-02-14T13:56:08;12.18;;;9.10;;
64885;SDS011;51514;52.206;5.114;2024-02-14T13:58:34;12.23;;;9.18;;
64885;SDS011;51514;52.206;5.114;2024-02-14T14:00:59;14.25;;;8.93;;
64885;SDS011;51514;52.206;5.114;2024-02-14T14:03:24;12.63;;;9.32;;
64885;SDS011;51514;52.206;5.114;2024-02-14T14:05:50;14.52;;;9.75;;
64885;SDS011;51514;52.206;5.114;2024-02-14T14:08:17;12.27;;;8.93;;
64885;SDS011;51514;52.206;5.114;2024-02-14T14:10:42;15.60;;;9.23;;
64885;SDS011;51514;52.206;5.114;2024-02-14T14:13:10;16.30;;;10.10;;
64885;SDS011;51514;52.206;5.114;2024-02-14T14:15:35;16.08;;;9.75;;
64885;SDS011;51514;52.206;5.114;2024-02-14T14:18:01;15.15;;;10.43;;
64885;SDS011;51514;52.206;5.114;2024-02-14T14:20:26;15.68;;;10.20;;